Teigen, MT

2:32 AM MDT on October 01, 2014 (GMT -0600)
RAWS DRY BLOOD CREEK MT US | Change Station
CLOSE
Current Station
Personal Weather Station
Location: Teigen, MT
Elevation: 3152 ft
Nearby Weather Stations
Active Advisory: Lake Wind Advisory

Elev 3152 ft 47.24 °N, 108.36 °W | Updated 51 minutes ago

Overcast
Overcast
47 °F
Feels Like 41 °F
N
14
Wind Variable Wind from WNW
Gusts 30.0 mph

Today
High -- | Low -- °F
--% Chance of Precip.
Yesterday
High -- | Low -- °F
Precip. -- in
7:13 AM 6:53 PM
Waxing Crescent, 45% visible
Pressure 29.88 in
Visibility 10.0 miles
Clouds Mostly Cloudy 1000 ft
Overcast 2500 ft
Windchill 41 °F
Dew Point 43 °F
Humidity 86%
Rainfall -999.00 in
Snow Depth Not available.
UV 0 out of 12
Pollen 3.90 out of 12
Air Quality Not available.
Flu Activity Not available.
SPECI KLWT 010822Z AUTO 29008KT 10SM BKN010 OVC025 07/06 A2988 RMK AO2 CIG 007V015 T00720056

More Conditions Fewer Conditions

Pressure 29.88 in
Visibility 10.0 miles
Clouds Mostly Cloudy 1000 ft
Overcast 2500 ft
Windchill 41 °F
Dew Point 43 °F
Humidity 86%
Rainfall -999.00 in
Snow Depth Not available.
UV 0 out of 12
Pollen 3.90 out of 12
Air Quality Not available.
Flu Activity Not available.
SPECI KLWT 010822Z AUTO 29008KT 10SM BKN010 OVC025 07/06 A2988 RMK AO2 CIG 007V015 T00720056

More Conditions Fewer Conditions

10-Day Weather Forecast

Almanac

Astronomy

Oct. 01, 2014 Rise Set
Actual Time 7:13 AM MDT 6:53 PM MDT
Civil Twilight 6:42 AM MDT 7:24 PM MDT
Nautical Twilight 6:07 AM MDT 7:59 PM MDT
Astronomical Twilight 5:31 AM MDT 8:35 PM MDT
Moon 2:33 PM MDT No Moon Set
Length of Visible Light 12h 41m
Length of Day
11h 40m
Tomorrow will be 3m 21s shorter.
Waxing Crescent, 45% of the Moon is Illuminated
Today
Waxing Crescent
Oct 1
First Quarter
Oct 8
Full
Oct 15
Last Quarter
Oct 23
New

Today's Extremes

State Highs State Lows

Community

WunderPhotos

Upload Photos

1,757,902 photos uploaded!

Nearby

Snow Depth

Station Depth Elevation
Mule Creek 1 in 8300 ft
Madison Plateau 0 in 7750 ft
Porcupine 0 in 6500 ft
North Fork Elk Creek 0 in 6250 ft
Twelvemile Creek 1 in 5600 ft

Earthquake Activity

City Distance Mag. Time & Date
No recent earthquake activity has been reported nearby.
Minimum magnitude displayed is 2.5.

Coastal Water Temperatures

Place Temperature
No Stations Reporting

Nearby Weather Stations